createdAt,value
2022-09-14T00:00:58.548Z,1.13
2022-09-14T00:03:33.640Z,1.10
2022-09-14T00:06:04.255Z,1.38
2022-09-14T00:08:30.794Z,1.17
2022-09-14T00:10:57.334Z,1.30
2022-09-14T00:13:23.856Z,1.20
2022-09-14T00:15:51.757Z,1.20
2022-09-14T00:18:18.931Z,1.60
2022-09-14T00:20:46.009Z,1.20
2022-09-14T00:23:12.804Z,1.40
2022-09-14T00:25:42.861Z,1.40
2022-09-14T00:28:09.787Z,1.25
2022-09-14T00:30:41.879Z,1.50
2022-09-14T00:33:10.391Z,1.10
2022-09-14T00:35:36.978Z,1.13
2022-09-14T00:38:03.744Z,1.20
2022-09-14T00:40:30.405Z,1.15
2022-09-14T00:42:57.267Z,1.60
2022-09-14T00:45:26.168Z,1.30
2022-09-14T00:47:53.973Z,1.63
2022-09-14T00:50:24.999Z,1.30
2022-09-14T00:52:51.560Z,1.45
2022-09-14T00:55:21.761Z,1.63
2022-09-14T00:57:52.620Z,1.25
2022-09-14T01:00:25.379Z,1.30
2022-09-14T01:02:52.145Z,1.30
2022-09-14T01:05:19.237Z,1.20
2022-09-14T01:08:08.630Z,1.60
2022-09-14T01:10:51.054Z,1.30
2022-09-14T01:13:28.254Z,1.33
2022-09-14T01:16:17.168Z,1.27
2022-09-14T01:18:48.738Z,1.30
2022-09-14T01:21:19.836Z,1.40
2022-09-14T01:23:55.384Z,1.00
2022-09-14T01:26:55.100Z,1.30
2022-09-14T01:29:31.138Z,1.67
2022-09-14T01:32:04.369Z,1.40
2022-09-14T01:34:36.474Z,1.90
2022-09-14T01:37:08.807Z,1.33
2022-09-14T01:39:37.373Z,1.33
2022-09-14T01:42:05.219Z,1.50
2022-09-14T01:44:37.746Z,1.70
2022-09-14T01:47:10.321Z,1.40
2022-09-14T01:49:42.905Z,1.70
2022-09-14T01:52:15.841Z,1.57
2022-09-14T01:54:48.220Z,1.58
2022-09-14T01:57:21.388Z,1.15
2022-09-14T01:59:53.371Z,1.52
2022-09-14T02:02:25.796Z,1.60
2022-09-14T02:04:59.324Z,1.40
2022-09-14T02:07:26.281Z,1.52
2022-09-14T02:09:54.864Z,1.35
2022-09-14T02:12:22.488Z,1.30
2022-09-14T02:14:52.990Z,1.33
2022-09-14T02:17:20.553Z,1.53
2022-09-14T02:19:52.459Z,1.55
2022-09-14T02:22:19.246Z,1.65
2022-09-14T02:24:46.407Z,1.48
2022-09-14T02:27:14.959Z,1.27
2022-09-14T02:29:43.535Z,1.23
2022-09-14T02:32:23.342Z,1.45
2022-09-14T02:34:57.383Z,1.52
2022-09-14T02:37:31.328Z,1.73
2022-09-14T02:40:06.276Z,1.85
2022-09-14T02:42:39.905Z,1.67
2022-09-14T02:45:13.949Z,1.70
2022-09-14T02:47:50.743Z,1.95
2022-09-14T02:50:24.301Z,1.95
2022-09-14T02:53:01.940Z,1.65
2022-09-14T02:55:37.487Z,2.00
2022-09-14T02:58:06.341Z,1.83
2022-09-14T03:00:36.538Z,1.77
2022-09-14T03:03:06.105Z,2.00
2022-09-14T03:05:32.777Z,2.10
2022-09-14T03:07:59.684Z,2.23
2022-09-14T03:10:26.877Z,1.90
2022-09-14T03:12:54.043Z,2.15
2022-09-14T03:15:20.697Z,2.25
2022-09-14T03:17:48.226Z,2.20
2022-09-14T03:20:18.404Z,2.30
2022-09-14T03:22:46.896Z,2.10
2022-09-14T03:25:15.645Z,2.45
2022-09-14T03:27:42.259Z,2.67
2022-09-14T03:30:10.865Z,2.95
2022-09-14T03:32:37.497Z,2.63
2022-09-14T03:35:05.820Z,2.38
2022-09-14T03:37:38.206Z,2.70
2022-09-14T03:40:07.105Z,2.85
2022-09-14T03:42:34.976Z,2.70
2022-09-14T03:45:01.625Z,2.60
2022-09-14T03:47:28.173Z,2.80
2022-09-14T03:49:54.729Z,2.70
2022-09-14T03:52:21.488Z,3.65
2022-09-14T03:54:49.701Z,3.30
2022-09-14T03:57:16.284Z,3.30
2022-09-14T03:59:43.829Z,2.85
2022-09-14T04:02:11.177Z,3.28
2022-09-14T04:04:37.985Z,2.90
2022-09-14T04:07:04.671Z,3.33
2022-09-14T04:09:31.593Z,3.47
2022-09-14T04:11:59.594Z,2.92
2022-09-14T04:14:26.479Z,2.90
2022-09-14T04:16:55.009Z,3.38
2022-09-14T04:19:21.499Z,3.25
2022-09-14T04:21:48.315Z,3.13
2022-09-14T04:24:16.142Z,3.40
2022-09-14T04:26:44.008Z,3.45
2022-09-14T04:29:12.748Z,3.40
2022-09-14T04:31:39.900Z,3.13
2022-09-14T04:34:07.048Z,3.47
2022-09-14T04:36:35.588Z,3.30
2022-09-14T04:39:02.902Z,3.33
2022-09-14T04:41:31.462Z,3.50
2022-09-14T04:43:59.369Z,3.08
2022-09-14T04:46:31.023Z,3.00
2022-09-14T04:48:58.599Z,3.40
2022-09-14T04:51:26.673Z,3.15
2022-09-14T04:53:55.300Z,3.63
2022-09-14T04:56:24.369Z,3.83
2022-09-14T04:58:54.148Z,4.17
2022-09-14T05:01:24.370Z,4.00
2022-09-14T05:03:53.828Z,5.03
2022-09-14T05:06:22.621Z,4.60
2022-09-14T05:08:50.954Z,3.75
2022-09-14T05:11:19.640Z,3.20
2022-09-14T05:13:50.263Z,3.60
2022-09-14T05:16:19.871Z,2.92
2022-09-14T05:22:01.220Z,2.67
2022-09-14T05:24:29.190Z,2.47
2022-09-14T05:27:00.208Z,2.70
2022-09-14T05:29:28.689Z,2.50
2022-09-14T05:31:55.313Z,2.70
2022-09-14T05:34:22.009Z,3.15
2022-09-14T05:36:49.557Z,2.63
2022-09-14T05:39:22.534Z,3.10
2022-09-14T05:41:49.910Z,3.58
2022-09-14T05:44:17.223Z,3.20
2022-09-14T05:46:44.078Z,3.45
2022-09-14T05:49:10.955Z,2.80
2022-09-14T05:51:37.861Z,2.33
2022-09-14T05:54:04.896Z,2.35
2022-09-14T05:56:33.013Z,2.13
2022-09-14T05:58:59.521Z,1.88
2022-09-14T06:01:29.812Z,2.23
2022-09-14T06:03:59.266Z,2.80
2022-09-14T06:06:26.514Z,2.65
2022-09-14T06:08:53.737Z,2.70
2022-09-14T06:11:22.325Z,2.83
2022-09-14T06:13:51.470Z,3.17
2022-09-14T06:16:20.805Z,2.58
2022-09-14T06:18:50.212Z,2.78
2022-09-14T06:21:18.522Z,3.15
2022-09-14T06:23:45.850Z,2.95
2022-09-14T06:26:12.753Z,3.20
2022-09-14T06:28:39.388Z,2.72
2022-09-14T06:31:12.299Z,2.50
2022-09-14T06:33:43.574Z,2.50
2022-09-14T06:36:12.089Z,2.47
2022-09-14T06:38:39.474Z,2.80
2022-09-14T06:41:08.959Z,2.72
2022-09-14T06:43:37.525Z,3.28
2022-09-14T06:46:07.835Z,3.03
2022-09-14T06:48:37.333Z,2.70
2022-09-14T06:51:11.969Z,3.10
2022-09-14T06:53:38.897Z,2.83
2022-09-14T06:56:05.518Z,2.28
2022-09-14T06:58:32.873Z,2.22
2022-09-14T07:01:03.902Z,2.58
2022-09-14T07:03:32.615Z,2.27
2022-09-14T07:06:03.445Z,3.47
2022-09-14T07:08:30.273Z,2.60
2022-09-14T07:10:57.474Z,2.80
2022-09-14T07:13:24.472Z,2.90
2022-09-14T07:15:51.234Z,3.13
2022-09-14T07:18:17.811Z,3.22
2022-09-14T07:20:46.267Z,3.22
2022-09-14T07:23:13.891Z,3.40
2022-09-14T07:25:41.248Z,3.00
2022-09-14T07:28:08.234Z,3.93
2022-09-14T07:30:36.375Z,3.35
2022-09-14T07:33:03.286Z,3.40
2022-09-14T07:35:32.829Z,3.10
2022-09-14T07:38:00.746Z,3.40
2022-09-14T07:40:27.325Z,2.90
2022-09-14T07:42:57.464Z,3.30
2022-09-14T07:45:24.443Z,2.75
2022-09-14T07:47:51.292Z,2.97
2022-09-14T07:50:18.023Z,2.47
2022-09-14T07:52:44.594Z,2.17
2022-09-14T07:55:12.499Z,2.53
2022-09-14T07:57:55.256Z,2.33
2022-09-14T08:00:23.196Z,2.47
2022-09-14T08:02:52.906Z,2.40
2022-09-14T08:05:19.574Z,2.73
2022-09-14T08:07:47.092Z,2.47
2022-09-14T08:10:15.061Z,2.60
2022-09-14T08:12:42.334Z,3.22
2022-09-14T08:15:10.625Z,3.25
2022-09-14T08:17:37.179Z,3.53
2022-09-14T08:20:04.229Z,2.80
2022-09-14T08:22:30.999Z,3.50
2022-09-14T08:24:58.061Z,3.30
2022-09-14T08:27:26.010Z,3.10
2022-09-14T08:29:52.648Z,2.47
2022-09-14T08:32:19.680Z,1.90
2022-09-14T08:34:49.514Z,1.73
2022-09-14T08:37:16.355Z,1.60
2022-09-14T08:39:42.965Z,1.60
2022-09-14T08:42:15.582Z,2.00
2022-09-14T08:44:47.362Z,2.58
2022-09-14T08:47:22.109Z,2.00
2022-09-14T08:49:54.451Z,2.03
2022-09-14T08:52:27.519Z,2.28
2022-09-14T08:54:56.833Z,2.37
2022-09-14T08:57:29.052Z,2.47
2022-09-14T09:00:05.599Z,2.58
2022-09-14T09:02:51.922Z,2.90
2022-09-14T09:05:28.358Z,2.78
2022-09-14T09:08:01.957Z,3.27
2022-09-14T09:10:29.939Z,3.55
2022-09-14T09:12:59.399Z,4.05
2022-09-14T09:15:31.490Z,4.07
2022-09-14T09:18:05.370Z,4.78
2022-09-14T09:20:34.417Z,4.17
2022-09-14T09:23:14.591Z,3.70
2022-09-14T09:25:51.762Z,2.50
2022-09-14T09:28:19.759Z,2.70
2022-09-14T09:30:48.087Z,2.40
2022-09-14T09:33:19.011Z,2.13
2022-09-14T09:35:46.406Z,2.15
2022-09-14T09:38:15.409Z,2.35
2022-09-14T09:40:46.415Z,2.00
2022-09-14T09:43:28.668Z,2.28
2022-09-14T09:46:00.051Z,1.90
2022-09-14T09:48:31.260Z,2.00
2022-09-14T09:51:12.361Z,1.98
2022-09-14T09:53:47.208Z,2.15
2022-09-14T09:56:18.398Z,2.58
2022-09-14T09:58:45.422Z,2.53
2022-09-14T10:01:22.323Z,2.50
2022-09-14T10:04:02.011Z,3.13
2022-09-14T10:06:28.812Z,2.85
2022-09-14T10:08:58.166Z,2.97
2022-09-14T10:11:31.579Z,2.43
2022-09-14T10:13:58.436Z,2.40
2022-09-14T10:16:36.196Z,2.50
2022-09-14T10:19:04.095Z,2.55
2022-09-14T10:21:30.830Z,2.40
2022-09-14T10:24:15.900Z,2.40
2022-09-14T10:26:42.621Z,2.50
2022-09-14T10:29:38.121Z,2.70
2022-09-14T10:32:19.131Z,2.45
2022-09-14T10:34:46.091Z,2.17
2022-09-14T10:37:26.640Z,1.87
2022-09-14T10:40:06.661Z,2.40
2022-09-14T10:42:40.221Z,2.50
2022-09-14T10:45:27.340Z,2.20
2022-09-14T10:48:26.649Z,2.17
2022-09-14T10:51:02.829Z,1.93
2022-09-14T10:53:40.997Z,1.70
2022-09-14T10:56:19.187Z,1.90
2022-09-14T10:59:10.820Z,1.80
2022-09-14T11:02:00.355Z,1.60
2022-09-14T11:04:49.372Z,1.33
2022-09-14T11:07:24.946Z,1.40
2022-09-14T11:09:58.770Z,1.20
2022-09-14T11:12:34.359Z,1.50
2022-09-14T11:15:14.588Z,1.40
2022-09-14T11:18:01.380Z,1.60
2022-09-14T11:20:42.614Z,1.27
2022-09-14T11:23:25.933Z,1.50
2022-09-14T11:26:00.554Z,1.30
2022-09-14T11:28:31.293Z,1.10
2022-09-14T11:31:05.787Z,1.10
2022-09-14T11:33:38.027Z,1.20
2022-09-14T11:36:13.170Z,1.15
2022-09-14T11:38:45.222Z,1.20
2022-09-14T11:41:22.460Z,1.20
2022-09-14T11:43:56.068Z,1.30
2022-09-14T11:50:14.189Z,1.10
2022-09-14T11:52:42.807Z,0.85
2022-09-14T11:55:15.754Z,1.02
2022-09-14T11:57:48.420Z,0.87
2022-09-14T12:00:47.580Z,0.90
2022-09-14T12:03:17.532Z,1.00
2022-09-14T12:05:45.109Z,1.00
2022-09-14T12:08:38.513Z,1.10
2022-09-14T12:11:25.191Z,1.00
2022-09-14T12:14:13.683Z,0.90
2022-09-14T12:17:22.609Z,0.95
2022-09-14T12:19:59.271Z,1.25
2022-09-14T12:22:31.016Z,0.85
2022-09-14T12:25:01.672Z,0.90
2022-09-14T12:27:31.717Z,1.40
2022-09-14T12:29:58.903Z,1.25
2022-09-14T12:32:42.978Z,1.60
2022-09-14T12:35:45.119Z,1.90
2022-09-14T12:38:40.691Z,2.10
2022-09-14T12:41:37.037Z,2.00
2022-09-14T12:44:33.708Z,2.13
2022-09-14T12:47:33.806Z,1.55
2022-09-14T12:50:08.681Z,1.33
2022-09-14T12:52:44.982Z,1.10
2022-09-14T12:55:31.308Z,2.20
2022-09-14T12:58:07.296Z,1.30
2022-09-14T13:00:55.597Z,1.40
2022-09-14T13:03:46.336Z,1.20
2022-09-14T13:06:14.113Z,1.23
2022-09-14T13:08:44.934Z,1.33
2022-09-14T13:11:20.263Z,1.48
2022-09-14T13:13:48.701Z,1.52
2022-09-14T13:16:25.018Z,1.40
2022-09-14T13:18:59.978Z,1.80
2022-09-14T13:21:26.666Z,2.00
2022-09-14T13:23:53.301Z,2.30
2022-09-14T13:26:23.340Z,2.50
2022-09-14T13:28:52.402Z,2.65
2022-09-14T13:31:25.697Z,2.83
2022-09-14T13:33:54.295Z,2.53
2022-09-14T13:36:24.186Z,2.80
2022-09-14T13:38:57.217Z,3.00
2022-09-14T13:41:28.690Z,2.50
2022-09-14T13:43:59.662Z,2.30
2022-09-14T13:46:28.688Z,2.03
2022-09-14T13:48:56.267Z,2.10
2022-09-14T13:51:24.833Z,2.20
2022-09-14T13:53:53.518Z,2.30
2022-09-14T13:56:23.624Z,2.50
2022-09-14T13:59:11.125Z,1.85
2022-09-14T14:01:41.385Z,2.00
2022-09-14T14:04:23.927Z,1.98
2022-09-14T14:07:01.721Z,1.88
2022-09-14T14:09:40.150Z,1.50
2022-09-14T14:12:06.877Z,1.80
2022-09-14T14:14:33.469Z,1.50
2022-09-14T14:17:33.843Z,1.77
2022-09-14T14:20:31.540Z,1.85
2022-09-14T14:23:01.911Z,1.70
2022-09-14T14:25:31.073Z,1.80
2022-09-14T14:28:02.735Z,1.70
2022-09-14T14:30:30.350Z,1.73
2022-09-14T14:32:59.380Z,1.67
2022-09-14T14:35:28.981Z,2.20
2022-09-14T14:37:56.360Z,2.20
2022-09-14T14:40:24.587Z,1.90
2022-09-14T14:42:51.552Z,2.15
2022-09-14T14:45:20.728Z,2.17
2022-09-14T14:47:48.560Z,2.10
2022-09-14T14:50:18.421Z,2.22
2022-09-14T14:52:45.328Z,2.03
2022-09-14T14:55:12.594Z,1.85
2022-09-14T14:57:39.282Z,1.77
2022-09-14T15:00:12.957Z,1.80
2022-09-14T15:02:40.323Z,1.60
2022-09-14T15:05:07.731Z,1.52
2022-09-14T15:07:37.930Z,1.90
2022-09-14T15:10:06.795Z,1.50
2022-09-14T15:12:39.873Z,1.80
2022-09-14T15:15:11.431Z,1.40
2022-09-14T15:17:39.048Z,1.40
2022-09-14T15:20:09.507Z,1.50
2022-09-14T15:22:38.627Z,1.33
2022-09-14T15:25:07.368Z,1.40
2022-09-14T15:27:33.915Z,1.50
2022-09-14T15:30:00.595Z,1.60
2022-09-14T15:32:28.174Z,1.58
2022-09-14T15:34:56.079Z,1.30
2022-09-14T15:37:22.779Z,1.40
2022-09-14T15:39:51.024Z,1.30
2022-09-14T15:42:18.561Z,0.90
2022-09-14T15:44:45.360Z,1.10
2022-09-14T15:47:13.418Z,1.15
2022-09-14T15:49:40.792Z,1.40
2022-09-14T15:52:07.680Z,0.98
2022-09-14T15:54:36.068Z,1.00
2022-09-14T15:57:05.742Z,1.00
2022-09-14T15:59:33.267Z,1.40
2022-09-14T16:02:00.346Z,1.50
2022-09-14T16:04:27.050Z,1.40
2022-09-14T16:06:53.731Z,1.50
2022-09-14T16:09:20.689Z,1.38
2022-09-14T16:11:47.984Z,1.20
2022-09-14T16:14:15.915Z,1.43
2022-09-14T16:16:44.373Z,1.60
2022-09-14T16:19:13.825Z,1.27
2022-09-14T16:21:40.960Z,1.40
2022-09-14T16:24:19.462Z,1.63
2022-09-14T16:26:46.510Z,1.33
2022-09-14T16:29:15.354Z,1.20
2022-09-14T16:31:44.990Z,1.10
2022-09-14T16:34:16.950Z,1.30
2022-09-14T16:36:44.597Z,1.20
2022-09-14T16:39:13.759Z,1.40
2022-09-14T16:41:40.784Z,1.38
2022-09-14T16:44:10.190Z,1.58
2022-09-14T16:46:38.851Z,1.50
2022-09-14T16:49:08.436Z,1.75
2022-09-14T16:51:42.617Z,2.07
2022-09-14T16:54:15.128Z,2.63
2022-09-14T16:56:41.997Z,1.88
2022-09-14T16:59:08.723Z,2.35
2022-09-14T17:01:37.207Z,2.20
2022-09-14T17:04:09.181Z,2.30
2022-09-14T17:06:37.720Z,2.30
2022-09-14T17:09:08.824Z,2.90
2022-09-14T17:11:37.583Z,2.53
2022-09-14T17:14:06.072Z,2.83
2022-09-14T17:16:33.624Z,2.70
2022-09-14T17:19:02.049Z,2.38
2022-09-14T17:21:32.461Z,2.38
2022-09-14T17:24:01.114Z,2.47
2022-09-14T17:26:27.859Z,2.47
2022-09-14T17:28:56.686Z,2.77
2022-09-14T17:31:25.699Z,3.05
2022-09-14T17:33:54.108Z,2.83
2022-09-14T17:36:21.267Z,2.90
2022-09-14T17:38:49.560Z,3.60
2022-09-14T17:41:19.007Z,3.77
2022-09-14T17:43:51.935Z,3.72
2022-09-14T17:46:18.665Z,4.30
2022-09-14T17:48:45.597Z,4.88
2022-09-14T17:51:15.889Z,6.15
2022-09-14T17:53:43.811Z,6.23
2022-09-14T17:56:13.812Z,6.65
2022-09-14T17:58:41.175Z,7.78
2022-09-14T18:01:09.573Z,9.25
2022-09-14T18:03:37.201Z,10.65
2022-09-14T18:06:04.564Z,10.50
2022-09-14T18:08:34.020Z,9.73
2022-09-14T18:11:05.460Z,11.05
2022-09-14T18:13:39.729Z,11.52
2022-09-14T18:16:06.524Z,11.48
2022-09-14T18:18:35.951Z,11.37
2022-09-14T18:21:04.956Z,12.20
2022-09-14T18:23:31.800Z,13.57
2022-09-14T18:26:01.153Z,15.15
2022-09-14T18:28:29.002Z,14.40
2022-09-14T18:31:02.237Z,15.53
2022-09-14T18:33:29.544Z,14.40
2022-09-14T18:35:56.445Z,15.13
2022-09-14T18:38:23.442Z,15.35
2022-09-14T18:40:50.603Z,15.93
2022-09-14T18:43:17.413Z,14.83
2022-09-14T18:45:45.913Z,15.05
2022-09-14T18:48:17.732Z,14.77
2022-09-14T18:50:44.268Z,14.82
2022-09-14T18:53:11.218Z,14.52
2022-09-14T18:55:38.119Z,14.87
2022-09-14T18:58:04.861Z,14.20
2022-09-14T19:00:31.568Z,13.88
2022-09-14T19:02:58.195Z,14.45
2022-09-14T19:05:27.007Z,14.60
2022-09-14T19:07:55.187Z,14.53
2022-09-14T19:10:22.020Z,15.13
2022-09-14T19:12:49.022Z,14.95
2022-09-14T19:15:16.299Z,16.45
2022-09-14T19:17:42.876Z,14.75
2022-09-14T19:20:10.508Z,15.57
2022-09-14T19:22:41.539Z,15.20
2022-09-14T19:25:10.078Z,15.30
2022-09-14T19:27:36.717Z,16.05
2022-09-14T19:30:03.712Z,15.10
2022-09-14T19:32:30.336Z,14.60
2022-09-14T19:35:00.770Z,15.13
2022-09-14T19:37:29.863Z,14.85
2022-09-14T19:39:58.622Z,15.82
2022-09-14T19:42:25.749Z,14.63
2022-09-14T19:44:52.641Z,15.27
2022-09-14T19:47:19.370Z,15.25
2022-09-14T19:50:06.239Z,15.98
2022-09-14T19:52:35.212Z,14.93
2022-09-14T19:55:03.484Z,14.95
2022-09-14T19:57:32.679Z,16.00
2022-09-14T19:59:59.688Z,16.08
2022-09-14T20:02:26.563Z,15.27
2022-09-14T20:05:03.340Z,14.88
2022-09-14T20:07:30.014Z,14.68
2022-09-14T20:09:56.975Z,15.30
2022-09-14T20:12:25.419Z,14.75
2022-09-14T20:14:52.345Z,16.42
2022-09-14T20:17:19.417Z,16.50
2022-09-14T20:19:46.043Z,16.05
2022-09-14T20:22:16.719Z,15.50
2022-09-14T20:24:43.879Z,15.98
2022-09-14T20:27:10.561Z,16.27
2022-09-14T20:29:38.954Z,16.17
2022-09-14T20:32:06.195Z,15.75
2022-09-14T20:34:33.062Z,16.73
2022-09-14T20:37:02.347Z,15.10
2022-09-14T20:39:28.984Z,16.50
2022-09-14T20:41:57.998Z,15.90
2022-09-14T20:44:24.612Z,15.27
2022-09-14T20:46:52.535Z,15.73
2022-09-14T20:49:21.010Z,15.60
2022-09-14T20:51:48.079Z,15.55
2022-09-14T20:54:16.893Z,15.55
2022-09-14T20:56:45.466Z,16.17
2022-09-14T20:59:15.605Z,15.43
2022-09-14T21:01:47.482Z,15.50
2022-09-14T21:04:18.676Z,15.40
2022-09-14T21:06:48.411Z,15.50
2022-09-14T21:09:16.689Z,15.63
2022-09-14T21:11:44.189Z,15.17
2022-09-14T21:14:14.921Z,15.35
2022-09-14T21:16:43.591Z,15.30
2022-09-14T21:19:13.438Z,15.55
2022-09-14T21:21:42.660Z,15.20
2022-09-14T21:24:12.810Z,15.30
2022-09-14T21:26:42.645Z,15.45
2022-09-14T21:29:12.728Z,14.52
2022-09-14T21:31:39.717Z,14.45
2022-09-14T21:34:08.251Z,14.70
2022-09-14T21:36:37.818Z,14.50
2022-09-14T21:39:08.511Z,13.40
2022-09-14T21:41:36.688Z,14.68
2022-09-14T21:44:04.440Z,15.55
2022-09-14T21:46:31.294Z,14.00
2022-09-14T21:48:59.934Z,15.13
2022-09-14T21:51:29.293Z,15.57
2022-09-14T21:53:58.221Z,15.93
2022-09-14T21:56:27.966Z,15.32
2022-09-14T21:58:59.279Z,14.98
2022-09-14T22:01:29.485Z,14.37
2022-09-14T22:03:57.517Z,15.18
2022-09-14T22:06:29.571Z,15.10
2022-09-14T22:08:57.031Z,13.93
2022-09-14T22:11:27.724Z,14.38
2022-09-14T22:13:55.000Z,12.90
2022-09-14T22:16:25.204Z,13.80
2022-09-14T22:18:53.948Z,13.63
2022-09-14T22:21:21.991Z,12.52
2022-09-14T22:23:51.350Z,12.85
2022-09-14T22:26:18.734Z,12.70
2022-09-14T22:28:48.293Z,12.48
2022-09-14T22:31:16.337Z,12.52
2022-09-14T22:33:44.935Z,11.70
2022-09-14T22:36:12.494Z,12.25
2022-09-14T22:38:42.241Z,11.60
2022-09-14T22:41:14.373Z,12.05
2022-09-14T22:43:42.411Z,11.27
2022-09-14T22:46:48.339Z,12.38
2022-09-14T22:49:27.056Z,11.40
2022-09-14T22:52:09.543Z,10.73
2022-09-14T22:54:38.688Z,10.65
2022-09-14T22:57:05.882Z,10.45
2022-09-14T22:59:32.794Z,11.18
2022-09-14T23:12:10.713Z,10.48
2022-09-14T23:14:44.089Z,10.73
2022-09-14T23:17:12.383Z,10.30
2022-09-14T23:19:39.334Z,10.43
2022-09-14T23:22:08.292Z,10.90
2022-09-14T23:24:34.936Z,11.13
2022-09-14T23:27:01.516Z,10.45
2022-09-14T23:29:30.227Z,11.07
2022-09-14T23:31:57.653Z,10.83
2022-09-14T23:34:25.510Z,10.23
2022-09-14T23:36:52.134Z,10.57
